createdAt,value
2023-05-26T00:00:15.921Z,2.50
2023-05-26T00:01:15.939Z,2.43
2023-05-26T00:02:15.989Z,2.60
2023-05-26T00:03:16.106Z,2.53
2023-05-26T00:04:15.984Z,2.83
2023-05-26T00:05:15.936Z,2.48
2023-05-26T00:06:15.953Z,2.89
2023-05-26T00:07:15.950Z,2.69
2023-05-26T00:08:15.920Z,2.46
2023-05-26T00:09:15.976Z,2.48
2023-05-26T00:10:15.931Z,2.41
2023-05-26T00:11:15.941Z,2.61
2023-05-26T00:12:15.943Z,2.41
2023-05-26T00:13:15.949Z,2.41
2023-05-26T00:14:15.933Z,2.46
2023-05-26T00:15:15.937Z,2.12
2023-05-26T00:16:15.977Z,2.97
2023-05-26T00:17:15.934Z,2.26
2023-05-26T00:18:16.022Z,3.00
2023-05-26T00:19:15.905Z,2.72
2023-05-26T00:20:15.930Z,2.45
2023-05-26T00:21:15.912Z,2.64
2023-05-26T00:22:15.939Z,2.62
2023-05-26T00:23:15.902Z,2.62
2023-05-26T00:24:15.906Z,2.41
2023-05-26T00:25:15.897Z,2.44
2023-05-26T00:26:15.894Z,2.35
2023-05-26T00:27:15.898Z,2.69
2023-05-26T00:28:15.891Z,2.18
2023-05-26T00:29:28.455Z,2.57
2023-05-26T00:30:16.882Z,2.45
2023-05-26T00:31:15.885Z,2.55
2023-05-26T00:32:15.859Z,2.55
2023-05-26T00:33:15.854Z,3.08
2023-05-26T00:34:15.830Z,2.56
2023-05-26T00:35:15.851Z,2.35
2023-05-26T00:36:15.831Z,2.54
2023-05-26T00:37:15.831Z,2.31
2023-05-26T00:38:15.837Z,2.65
2023-05-26T00:39:15.809Z,2.42
2023-05-26T00:40:15.809Z,2.53
2023-05-26T00:41:15.818Z,2.32
2023-05-26T00:42:15.776Z,2.35
2023-05-26T00:43:15.781Z,2.33
2023-05-26T00:44:15.776Z,2.65
2023-05-26T00:45:15.780Z,2.41
2023-05-26T00:46:16.013Z,2.43
2023-05-26T00:47:15.877Z,2.35
2023-05-26T00:48:15.743Z,2.60
2023-05-26T00:49:15.757Z,2.64
2023-05-26T00:50:15.736Z,2.63
2023-05-26T00:51:15.730Z,2.45
2023-05-26T00:52:15.713Z,2.96
2023-05-26T00:53:15.737Z,2.18
2023-05-26T00:54:15.754Z,2.53
2023-05-26T00:55:15.694Z,2.39
2023-05-26T00:56:15.685Z,2.69
2023-05-26T00:57:15.696Z,2.71
2023-05-26T00:58:15.664Z,2.77
2023-05-26T00:59:15.668Z,2.66
2023-05-26T01:00:15.689Z,2.43
2023-05-26T01:01:15.750Z,3.00
2023-05-26T01:02:15.656Z,2.95
2023-05-26T01:03:15.666Z,2.91
2023-05-26T01:04:15.621Z,2.89
2023-05-26T01:05:15.639Z,2.89
2023-05-26T01:06:15.611Z,2.51
2023-05-26T01:07:15.612Z,2.52
2023-05-26T01:08:15.602Z,2.93
2023-05-26T01:09:15.598Z,2.83
2023-05-26T01:10:15.586Z,2.25
2023-05-26T01:11:15.607Z,2.47
2023-05-26T01:12:15.598Z,2.53
2023-05-26T01:13:15.565Z,2.51
2023-05-26T01:14:15.573Z,2.81
2023-05-26T01:15:15.566Z,2.76
2023-05-26T01:16:15.624Z,2.42
2023-05-26T01:17:15.535Z,2.53
2023-05-26T01:18:15.537Z,2.48
2023-05-26T01:19:15.528Z,2.89
2023-05-26T01:20:15.602Z,2.09
2023-05-26T01:21:15.530Z,2.59
2023-05-26T01:22:15.507Z,2.37
2023-05-26T01:23:15.514Z,2.23
2023-05-26T01:24:15.490Z,2.63
2023-05-26T01:25:15.493Z,2.53
2023-05-26T01:26:15.501Z,2.78
2023-05-26T01:27:15.490Z,2.85
2023-05-26T01:28:15.473Z,2.61
2023-05-26T01:29:15.472Z,2.58
2023-05-26T01:30:15.462Z,2.21
2023-05-26T01:31:15.472Z,2.59
2023-05-26T01:32:15.434Z,2.60
2023-05-26T01:33:15.556Z,2.84
2023-05-26T01:34:15.455Z,2.62
2023-05-26T01:35:15.443Z,2.54
2023-05-26T01:36:15.441Z,2.85
2023-05-26T01:37:15.417Z,2.67
2023-05-26T01:38:15.405Z,3.06
2023-05-26T01:39:15.401Z,2.65
2023-05-26T01:40:15.383Z,2.76
2023-05-26T01:41:15.379Z,2.74
2023-05-26T01:42:29.634Z,2.10
2023-05-26T01:43:16.386Z,2.52
2023-05-26T01:44:15.366Z,2.65
2023-05-26T01:45:15.362Z,2.63
2023-05-26T01:46:15.389Z,2.46
2023-05-26T01:47:15.360Z,2.63
2023-05-26T01:48:15.342Z,2.86
2023-05-26T01:49:15.340Z,2.72
2023-05-26T01:50:15.318Z,2.74
2023-05-26T01:51:15.338Z,2.80
2023-05-26T01:52:15.309Z,2.84
2023-05-26T01:53:15.300Z,2.06
2023-05-26T01:54:15.300Z,2.94
2023-05-26T01:55:15.319Z,2.72
2023-05-26T01:56:15.297Z,2.74
2023-05-26T01:57:15.268Z,2.49
2023-05-26T01:58:15.271Z,2.69
2023-05-26T01:59:15.278Z,2.86
2023-05-26T02:00:15.269Z,2.93
2023-05-26T02:01:15.266Z,2.60
2023-05-26T02:02:15.261Z,2.70
2023-05-26T02:03:15.317Z,2.52
2023-05-26T02:04:15.261Z,2.47
2023-05-26T02:05:15.235Z,2.79
2023-05-26T02:06:15.234Z,2.52
2023-05-26T02:07:15.209Z,2.55
2023-05-26T02:08:15.212Z,2.68
2023-05-26T02:09:15.201Z,2.16
2023-05-26T02:10:15.198Z,2.97
2023-05-26T02:11:15.191Z,2.69
2023-05-26T02:12:15.215Z,2.76
2023-05-26T02:13:15.190Z,3.01
2023-05-26T02:14:15.172Z,2.31
2023-05-26T02:15:15.161Z,2.57
2023-05-26T02:16:15.287Z,2.50
2023-05-26T02:17:15.138Z,2.68
2023-05-26T02:18:15.158Z,2.52
2023-05-26T02:19:15.146Z,2.94
2023-05-26T02:20:15.152Z,2.50
2023-05-26T02:21:15.135Z,2.98
2023-05-26T02:22:15.122Z,2.74
2023-05-26T02:23:15.106Z,3.07
2023-05-26T02:24:15.105Z,2.63
2023-05-26T02:25:15.094Z,3.21
2023-05-26T02:26:15.116Z,2.87
2023-05-26T02:27:15.095Z,3.09
2023-05-26T02:28:15.102Z,3.15
2023-05-26T02:29:15.090Z,2.88
2023-05-26T02:30:15.153Z,2.79
2023-05-26T02:31:15.080Z,2.68
2023-05-26T02:32:15.102Z,2.40
2023-05-26T02:33:15.155Z,2.79
2023-05-26T02:34:15.057Z,2.70
2023-05-26T02:35:15.042Z,3.78
2023-05-26T02:36:15.033Z,2.94
2023-05-26T02:37:15.009Z,3.26
2023-05-26T02:38:15.009Z,2.74
2023-05-26T02:39:15.005Z,2.83
2023-05-26T02:40:15.014Z,3.08
2023-05-26T02:41:15.008Z,2.59
2023-05-26T02:42:14.995Z,2.70
2023-05-26T02:43:14.988Z,2.71
2023-05-26T02:44:15.021Z,2.74
2023-05-26T02:45:14.993Z,2.82
2023-05-26T02:46:15.132Z,2.78
2023-05-26T02:47:14.996Z,2.80
2023-05-26T02:48:15.000Z,2.46
2023-05-26T02:49:15.015Z,2.90
2023-05-26T02:50:14.997Z,3.20
2023-05-26T02:51:15.010Z,2.86
2023-05-26T02:52:15.029Z,3.10
2023-05-26T02:53:15.026Z,2.81
2023-05-26T02:54:15.017Z,2.62
2023-05-26T02:55:15.037Z,2.63
2023-05-26T02:56:15.050Z,2.81
2023-05-26T02:57:15.043Z,2.41
2023-05-26T02:58:15.043Z,2.70
2023-05-26T02:59:15.039Z,2.87
2023-05-26T03:00:15.045Z,3.06
2023-05-26T03:01:15.116Z,2.93
2023-05-26T03:02:15.101Z,3.11
2023-05-26T03:03:15.262Z,3.00
2023-05-26T03:04:15.080Z,3.08
2023-05-26T03:05:15.094Z,2.66
2023-05-26T03:06:15.098Z,3.09
2023-05-26T03:07:15.082Z,2.81
2023-05-26T03:08:15.098Z,2.53
2023-05-26T03:09:15.125Z,2.81
2023-05-26T03:10:15.112Z,2.81
2023-05-26T03:11:15.155Z,2.69
2023-05-26T03:12:15.135Z,2.85
2023-05-26T03:13:15.158Z,2.90
2023-05-26T03:14:15.140Z,2.53
2023-05-26T03:15:15.160Z,2.73
2023-05-26T03:16:15.176Z,2.71
2023-05-26T03:17:15.194Z,3.25
2023-05-26T03:18:15.172Z,3.06
2023-05-26T03:19:15.177Z,2.64
2023-05-26T03:20:15.233Z,2.77
2023-05-26T03:21:47.962Z,2.72
2023-05-26T03:22:40.735Z,3.04
2023-05-26T03:23:16.185Z,3.01
2023-05-26T03:24:15.195Z,2.71
2023-05-26T03:25:15.189Z,2.75
2023-05-26T03:26:15.171Z,3.28
2023-05-26T03:27:15.171Z,2.99
2023-05-26T03:28:15.156Z,2.74
2023-05-26T03:29:15.153Z,2.93
2023-05-26T03:30:15.132Z,2.97
2023-05-26T03:31:15.146Z,3.13
2023-05-26T03:32:15.132Z,3.06
2023-05-26T03:33:15.108Z,3.45
2023-05-26T03:34:15.479Z,3.07
2023-05-26T03:35:15.102Z,3.12
2023-05-26T03:36:15.108Z,3.03
2023-05-26T03:37:15.084Z,2.24
2023-05-26T03:38:15.088Z,2.93
2023-05-26T03:39:15.080Z,2.99
2023-05-26T03:40:15.045Z,2.84
2023-05-26T03:41:15.060Z,2.76
2023-05-26T03:42:15.041Z,2.77
2023-05-26T03:43:15.056Z,2.86
2023-05-26T03:44:15.037Z,3.15
2023-05-26T03:45:15.036Z,2.84
2023-05-26T03:46:15.054Z,3.00
2023-05-26T03:47:15.016Z,2.79
2023-05-26T03:48:15.011Z,3.35
2023-05-26T03:49:15.004Z,2.99
2023-05-26T03:50:14.986Z,2.47
2023-05-26T03:51:14.998Z,3.00
2023-05-26T03:52:15.004Z,2.63
2023-05-26T03:53:14.983Z,2.55
2023-05-26T03:54:14.957Z,2.83
2023-05-26T03:55:14.959Z,3.12
2023-05-26T03:56:14.988Z,2.66
2023-05-26T03:57:14.936Z,3.08
2023-05-26T03:58:14.933Z,2.99
2023-05-26T03:59:14.919Z,3.35
2023-05-26T04:00:14.965Z,3.19
2023-05-26T04:01:14.907Z,3.46
2023-05-26T04:02:14.960Z,2.96
2023-05-26T04:03:14.896Z,2.65
2023-05-26T04:04:14.906Z,3.02
2023-05-26T04:05:14.882Z,3.88
2023-05-26T04:06:14.893Z,3.29
2023-05-26T04:07:14.866Z,2.81
2023-05-26T04:08:14.850Z,3.00
2023-05-26T04:09:14.851Z,2.94
2023-05-26T04:10:14.871Z,3.43
2023-05-26T04:11:14.854Z,2.84
2023-05-26T04:12:14.826Z,3.26
2023-05-26T04:13:14.817Z,2.91
2023-05-26T04:14:14.839Z,2.71
2023-05-26T04:15:14.808Z,3.24
2023-05-26T04:16:14.845Z,3.20
2023-05-26T04:17:14.792Z,2.93
2023-05-26T04:18:14.795Z,3.17
2023-05-26T04:19:14.776Z,3.13
2023-05-26T04:20:14.803Z,3.06
2023-05-26T04:21:14.773Z,2.84
2023-05-26T04:22:14.762Z,2.85
2023-05-26T04:23:14.752Z,3.25
2023-05-26T04:24:14.747Z,2.98
2023-05-26T04:25:14.792Z,3.49
2023-05-26T04:26:14.738Z,3.16
2023-05-26T04:27:14.720Z,2.95
2023-05-26T04:28:14.712Z,2.93
2023-05-26T04:29:14.713Z,2.92
2023-05-26T04:30:14.692Z,2.96
2023-05-26T04:31:14.700Z,3.11
2023-05-26T04:32:14.761Z,2.93
2023-05-26T04:33:14.678Z,2.41
2023-05-26T04:34:14.667Z,3.25
2023-05-26T04:35:14.668Z,3.02
2023-05-26T04:36:14.702Z,3.53
2023-05-26T04:37:14.656Z,3.17
2023-05-26T04:38:14.680Z,2.68
2023-05-26T04:39:14.639Z,3.25
2023-05-26T04:40:14.666Z,3.44
2023-05-26T04:41:14.621Z,3.14
2023-05-26T04:42:14.622Z,3.24
2023-05-26T04:43:14.626Z,3.06
2023-05-26T04:44:14.618Z,3.53
2023-05-26T04:45:15.186Z,3.27
2023-05-26T04:46:14.665Z,3.27
2023-05-26T04:47:14.586Z,3.29
2023-05-26T04:48:14.569Z,3.08
2023-05-26T04:49:14.563Z,3.27
2023-05-26T04:50:14.563Z,3.34
2023-05-26T04:51:14.562Z,3.17
2023-05-26T04:52:14.572Z,3.05
2023-05-26T04:53:14.546Z,2.99
2023-05-26T04:54:14.532Z,3.43
2023-05-26T04:55:14.537Z,2.90
2023-05-26T04:56:14.561Z,2.94
2023-05-26T04:57:14.520Z,3.72
2023-05-26T04:58:14.506Z,3.36
2023-05-26T04:59:14.509Z,3.16
2023-05-26T05:00:14.515Z,2.98
2023-05-26T05:01:14.516Z,3.50
2023-05-26T05:02:14.552Z,2.98
2023-05-26T05:03:14.485Z,3.50
2023-05-26T05:04:14.484Z,3.25
2023-05-26T05:05:14.481Z,2.98
2023-05-26T05:06:14.472Z,3.29
2023-05-26T05:07:14.475Z,3.24
2023-05-26T05:08:14.435Z,3.26
2023-05-26T05:09:14.435Z,2.59
2023-05-26T05:10:14.466Z,3.58
2023-05-26T05:11:14.477Z,3.52
2023-05-26T05:12:14.452Z,3.54
2023-05-26T05:13:14.458Z,3.47
2023-05-26T05:14:14.478Z,3.04
2023-05-26T05:15:14.477Z,2.76
2023-05-26T05:16:14.507Z,3.07
2023-05-26T05:17:14.492Z,2.87
2023-05-26T05:18:14.499Z,3.07
2023-05-26T05:19:14.499Z,3.00
2023-05-26T05:20:16.448Z,3.11
2023-05-26T05:21:14.646Z,3.39
2023-05-26T05:22:14.581Z,3.71
2023-05-26T05:23:14.594Z,3.28
2023-05-26T05:24:14.551Z,2.70
2023-05-26T05:25:14.615Z,3.24
2023-05-26T05:26:14.602Z,3.51
2023-05-26T05:27:14.588Z,3.49
2023-05-26T05:28:14.583Z,3.27
2023-05-26T05:29:14.627Z,3.47
2023-05-26T05:30:14.610Z,3.49
2023-05-26T05:31:14.997Z,3.19
2023-05-26T05:32:14.662Z,3.45
2023-05-26T05:33:14.750Z,5.17
2023-05-26T05:34:14.630Z,5.45
2023-05-26T05:35:14.683Z,4.31
2023-05-26T05:36:14.653Z,4.90
2023-05-26T05:37:14.638Z,7.01
2023-05-26T05:38:14.725Z,5.28
2023-05-26T05:39:14.686Z,5.25
2023-05-26T05:40:14.725Z,5.45
2023-05-26T05:41:15.032Z,4.70
2023-05-26T05:42:14.679Z,5.30
2023-05-26T05:43:14.668Z,4.98
2023-05-26T05:44:14.665Z,5.06
2023-05-26T05:45:14.658Z,4.89
2023-05-26T05:46:15.008Z,5.48
2023-05-26T05:47:14.718Z,5.26
2023-05-26T05:48:14.714Z,5.59
2023-05-26T05:49:14.705Z,5.91
2023-05-26T05:50:14.690Z,4.94
2023-05-26T05:51:14.695Z,5.38
2023-05-26T05:52:14.703Z,5.13
2023-05-26T05:53:14.697Z,5.59
2023-05-26T05:54:14.681Z,5.73
2023-05-26T05:55:14.704Z,6.38
2023-05-26T05:56:14.725Z,6.28
2023-05-26T05:57:14.694Z,6.09
2023-05-26T05:58:14.687Z,5.83
2023-05-26T05:59:14.725Z,5.88
2023-05-26T06:00:14.715Z,5.79
2023-05-26T06:01:14.699Z,5.46
2023-05-26T06:02:14.801Z,5.56
2023-05-26T06:03:14.842Z,6.56
2023-05-26T06:04:14.850Z,5.98
2023-05-26T06:05:14.854Z,6.11
2023-05-26T06:06:15.011Z,6.04
2023-05-26T06:07:15.023Z,5.86
2023-05-26T06:08:14.792Z,6.41
2023-05-26T06:09:14.831Z,6.34
2023-05-26T06:10:14.805Z,6.79
2023-05-26T06:11:14.816Z,5.55
2023-05-26T06:12:14.996Z,6.16
2023-05-26T06:13:14.863Z,6.43
2023-05-26T06:14:14.863Z,6.00
2023-05-26T06:15:14.900Z,6.47
2023-05-26T06:16:14.944Z,6.53
2023-05-26T06:17:15.044Z,6.46
2023-05-26T06:18:14.988Z,5.99
2023-05-26T06:19:14.954Z,6.31
2023-05-26T06:20:14.992Z,6.33
2023-05-26T06:21:15.028Z,6.40
2023-05-26T06:22:15.012Z,6.42
2023-05-26T06:23:15.017Z,6.42
2023-05-26T06:24:15.055Z,6.26
2023-05-26T06:25:15.076Z,6.69
2023-05-26T06:26:15.069Z,6.71
2023-05-26T06:27:16.732Z,6.24
2023-05-26T06:28:15.111Z,5.55
2023-05-26T06:29:15.124Z,6.42
2023-05-26T06:30:15.143Z,6.92
2023-05-26T06:31:15.198Z,6.96
2023-05-26T06:32:15.171Z,6.38
2023-05-26T06:33:15.189Z,6.65
2023-05-26T06:34:15.200Z,6.32
2023-05-26T06:35:15.256Z,7.05
2023-05-26T06:36:15.557Z,6.93
2023-05-26T06:37:16.043Z,6.45
2023-05-26T06:38:15.262Z,5.95
2023-05-26T06:39:15.250Z,5.55
2023-05-26T06:40:15.283Z,5.08
2023-05-26T06:41:15.564Z,5.99
2023-05-26T06:42:15.526Z,6.34
2023-05-26T06:43:15.307Z,7.23
2023-05-26T06:44:15.316Z,6.95
2023-05-26T06:45:15.365Z,6.41
2023-05-26T06:46:15.399Z,6.06
2023-05-26T06:47:15.584Z,6.34
2023-05-26T06:48:15.433Z,6.72
2023-05-26T06:49:15.414Z,7.14
2023-05-26T06:50:15.400Z,6.54
2023-05-26T06:51:15.618Z,6.47
2023-05-26T06:52:15.427Z,7.14
2023-05-26T06:53:15.439Z,6.51
2023-05-26T06:54:15.455Z,7.99
2023-05-26T06:55:15.491Z,8.16
2023-05-26T06:56:15.481Z,7.34
2023-05-26T06:57:15.497Z,8.04
2023-05-26T06:58:15.533Z,8.10
2023-05-26T06:59:15.529Z,8.54
2023-05-26T07:00:15.556Z,8.92
2023-05-26T07:01:15.535Z,8.84
2023-05-26T07:02:15.584Z,8.85
2023-05-26T07:03:15.598Z,9.38
2023-05-26T07:04:15.537Z,9.25
2023-05-26T07:05:15.571Z,10.12
2023-05-26T07:06:15.629Z,9.58
2023-05-26T07:07:15.599Z,9.79
2023-05-26T07:08:15.604Z,8.52
2023-05-26T07:09:15.621Z,8.85
2023-05-26T07:10:15.629Z,9.98
2023-05-26T07:11:15.670Z,10.30
2023-05-26T07:12:15.671Z,9.49
2023-05-26T07:13:15.669Z,10.40
2023-05-26T07:14:15.700Z,9.70
2023-05-26T07:15:15.704Z,10.28
2023-05-26T07:16:15.738Z,9.28
2023-05-26T07:17:15.707Z,9.29
2023-05-26T07:18:15.731Z,9.83
2023-05-26T07:19:15.792Z,9.30
2023-05-26T07:20:15.813Z,9.92
2023-05-26T07:21:15.764Z,9.20
2023-05-26T07:22:15.794Z,9.67
2023-05-26T07:23:15.783Z,8.86
2023-05-26T07:24:15.797Z,10.12
2023-05-26T07:25:15.797Z,9.59
2023-05-26T07:26:15.812Z,10.24
2023-05-26T07:27:15.806Z,10.22
2023-05-26T07:28:15.812Z,10.16
2023-05-26T07:29:15.838Z,10.29
2023-05-26T07:30:15.842Z,10.29
2023-05-26T07:31:15.863Z,9.96
2023-05-26T07:32:17.157Z,10.11
2023-05-26T07:33:15.927Z,8.21
2023-05-26T07:34:15.842Z,7.99
2023-05-26T07:35:15.843Z,7.95
2023-05-26T07:36:16.554Z,7.58
2023-05-26T07:37:15.813Z,8.28
2023-05-26T07:38:15.816Z,7.55
2023-05-26T07:39:15.792Z,9.07
2023-05-26T07:40:15.809Z,8.81
2023-05-26T07:41:15.809Z,9.78
2023-05-26T07:42:15.799Z,9.34
2023-05-26T07:43:15.772Z,9.42
2023-05-26T07:44:15.844Z,9.00
2023-05-26T07:45:15.766Z,9.12
2023-05-26T07:46:16.087Z,9.91
2023-05-26T07:47:15.750Z,10.18
2023-05-26T07:48:15.789Z,9.17
2023-05-26T07:49:15.722Z,9.12
2023-05-26T07:50:15.749Z,8.43
2023-05-26T07:51:16.068Z,7.77
2023-05-26T07:52:15.697Z,7.64
2023-05-26T07:53:15.690Z,8.44
2023-05-26T07:54:15.701Z,8.45
2023-05-26T07:55:15.675Z,8.29
2023-05-26T07:56:15.720Z,10.02
2023-05-26T07:57:28.937Z,9.67
2023-05-26T07:58:16.655Z,9.04
2023-05-26T07:59:15.661Z,9.76
2023-05-26T08:00:15.636Z,10.36
2023-05-26T08:01:16.059Z,9.91
2023-05-26T08:02:15.656Z,9.55
2023-05-26T08:03:15.702Z,9.03
2023-05-26T08:04:15.614Z,10.12
2023-05-26T08:05:15.637Z,10.13
2023-05-26T08:06:25.582Z,10.16
2023-05-26T08:07:18.456Z,10.46
2023-05-26T08:08:15.575Z,10.47
2023-05-26T08:09:15.577Z,10.20
2023-05-26T08:10:15.599Z,10.16
2023-05-26T08:11:15.567Z,9.63
2023-05-26T08:12:15.585Z,10.25
2023-05-26T08:13:15.559Z,10.27
2023-05-26T08:14:15.560Z,10.13
2023-05-26T08:15:17.049Z,9.45
2023-05-26T08:16:15.568Z,10.23
2023-05-26T08:17:15.527Z,9.68
2023-05-26T08:18:15.533Z,10.32
2023-05-26T08:19:15.512Z,10.40
2023-05-26T08:20:15.571Z,9.43
2023-05-26T08:21:15.505Z,9.98
2023-05-26T08:22:15.543Z,10.24
2023-05-26T08:23:15.483Z,9.79
2023-05-26T08:24:15.481Z,8.96
2023-05-26T08:25:15.483Z,10.05
2023-05-26T08:26:15.488Z,8.89
2023-05-26T08:27:15.464Z,9.73
2023-05-26T08:28:15.453Z,11.17
2023-05-26T08:29:15.445Z,10.64
2023-05-26T08:30:15.461Z,10.68
2023-05-26T08:31:15.686Z,10.58
2023-05-26T08:32:15.427Z,10.04
2023-05-26T08:33:15.420Z,11.06
2023-05-26T08:34:15.428Z,11.36
2023-05-26T08:35:15.419Z,10.70
2023-05-26T08:36:15.429Z,11.04
2023-05-26T08:37:15.393Z,10.78
2023-05-26T08:38:15.386Z,10.96
2023-05-26T08:39:15.395Z,10.91
2023-05-26T08:40:15.375Z,9.90
2023-05-26T08:41:15.391Z,10.04
2023-05-26T08:42:15.583Z,10.68
2023-05-26T08:43:15.365Z,9.56
2023-05-26T08:44:15.345Z,10.53
2023-05-26T08:45:15.359Z,10.27
2023-05-26T08:46:15.604Z,9.72
2023-05-26T08:47:15.615Z,10.21
2023-05-26T08:48:15.361Z,10.44
2023-05-26T08:49:15.308Z,10.84
2023-05-26T08:50:15.290Z,10.75
2023-05-26T08:51:15.290Z,9.99
2023-05-26T08:52:15.294Z,10.69
2023-05-26T08:53:16.926Z,9.81
2023-05-26T08:54:15.272Z,11.17
2023-05-26T08:55:15.316Z,10.63
2023-05-26T08:56:15.262Z,10.29
2023-05-26T08:57:15.262Z,10.40
2023-05-26T08:58:15.251Z,10.17
2023-05-26T08:59:15.242Z,9.69
2023-05-26T09:00:15.275Z,9.45
2023-05-26T09:01:15.244Z,9.28
2023-05-26T09:02:15.252Z,10.07
2023-05-26T09:03:15.295Z,10.71
2023-05-26T09:04:15.311Z,9.99
2023-05-26T09:05:15.187Z,9.28
2023-05-26T09:06:15.346Z,9.33
2023-05-26T09:08:15.163Z,9.53
2023-05-26T09:09:15.165Z,9.47
2023-05-26T09:10:15.175Z,8.72
2023-05-26T09:11:15.152Z,9.37
2023-05-26T09:12:15.168Z,8.38
2023-05-26T09:13:15.169Z,9.42
2023-05-26T09:14:15.139Z,8.67
2023-05-26T09:15:15.141Z,8.96
2023-05-26T09:16:17.755Z,8.48
2023-05-26T09:17:16.168Z,8.44
2023-05-26T09:18:15.126Z,8.28
2023-05-26T09:19:15.101Z,8.84
2023-05-26T09:20:15.123Z,8.39
2023-05-26T09:21:15.097Z,8.83
2023-05-26T09:22:15.082Z,9.84
2023-05-26T09:23:15.092Z,8.37
2023-05-26T09:24:15.101Z,9.70
2023-05-26T09:25:15.056Z,8.65
2023-05-26T09:26:15.080Z,8.86
2023-05-26T09:27:15.042Z,9.31
2023-05-26T09:28:15.066Z,8.73
2023-05-26T09:29:15.042Z,8.84
2023-05-26T09:30:15.110Z,9.05
2023-05-26T09:31:15.027Z,8.25
2023-05-26T09:32:15.052Z,9.02
2023-05-26T09:33:15.031Z,8.86
2023-05-26T09:34:15.032Z,8.93
2023-05-26T09:35:14.987Z,8.73
2023-05-26T09:36:14.995Z,9.09
2023-05-26T09:37:15.104Z,8.88
2023-05-26T09:38:14.989Z,9.04
2023-05-26T09:39:15.054Z,8.76
2023-05-26T09:40:15.023Z,9.49
2023-05-26T09:41:15.061Z,8.91
2023-05-26T09:42:15.089Z,8.58
2023-05-26T09:43:15.041Z,8.83
2023-05-26T09:44:15.071Z,8.61
2023-05-26T09:45:15.066Z,8.97
2023-05-26T09:46:15.097Z,8.03
2023-05-26T09:47:15.103Z,8.41
2023-05-26T09:48:15.115Z,8.05
2023-05-26T09:49:15.161Z,8.49
2023-05-26T09:50:15.148Z,8.17
2023-05-26T09:51:17.206Z,7.94
2023-05-26T09:52:15.154Z,7.96
2023-05-26T09:53:15.212Z,7.79
2023-05-26T09:54:15.120Z,7.88
2023-05-26T09:55:15.138Z,8.37
2023-05-26T09:56:19.705Z,8.19
2023-05-26T09:57:16.221Z,8.45
2023-05-26T09:58:15.094Z,8.31
2023-05-26T09:59:15.087Z,8.28
2023-05-26T10:00:15.127Z,7.79
2023-05-26T10:01:15.102Z,7.75
2023-05-26T10:02:15.145Z,7.77
2023-05-26T10:03:15.057Z,7.93
2023-05-26T10:04:15.049Z,8.61
2023-05-26T10:05:15.039Z,8.13
2023-05-26T10:06:15.048Z,8.24
2023-05-26T10:07:15.059Z,7.31
2023-05-26T10:08:15.093Z,7.88
2023-05-26T10:09:15.125Z,8.28
2023-05-26T10:10:15.188Z,7.76
2023-05-26T10:11:15.235Z,7.28
2023-05-26T10:12:15.661Z,8.10
2023-05-26T10:13:15.405Z,7.83
2023-05-26T10:14:15.430Z,7.51
2023-05-26T10:15:15.485Z,7.30
2023-05-26T10:16:15.537Z,8.08
2023-05-26T10:17:15.618Z,7.09
2023-05-26T10:18:15.681Z,7.44
2023-05-26T10:19:15.744Z,7.56
2023-05-26T10:20:15.828Z,8.24
2023-05-26T10:21:15.845Z,7.43
2023-05-26T10:22:15.884Z,7.41
2023-05-26T10:23:15.938Z,8.10
2023-05-26T10:24:16.008Z,8.23
2023-05-26T10:25:16.047Z,7.67
2023-05-26T10:26:16.090Z,7.73
2023-05-26T10:27:16.197Z,10.16
2023-05-26T10:28:16.241Z,8.12
2023-05-26T10:29:16.231Z,8.15
2023-05-26T10:30:16.322Z,8.74
2023-05-26T10:31:16.350Z,8.14
2023-05-26T10:32:16.427Z,7.40
2023-05-26T10:33:16.457Z,8.65
2023-05-26T10:34:16.401Z,7.69
2023-05-26T10:35:16.488Z,8.19
2023-05-26T10:36:16.505Z,8.08
2023-05-26T10:37:16.568Z,7.33
2023-05-26T10:38:16.578Z,7.87
2023-05-26T10:39:16.652Z,8.37
2023-05-26T10:40:16.680Z,7.31
2023-05-26T10:41:16.729Z,7.01
2023-05-26T10:42:16.788Z,8.26
2023-05-26T10:43:16.842Z,7.30
2023-05-26T10:44:16.896Z,6.92
2023-05-26T10:45:16.914Z,7.10
2023-05-26T10:46:17.062Z,7.71
2023-05-26T10:47:17.015Z,7.55
2023-05-26T10:48:17.074Z,7.25
2023-05-26T10:49:17.130Z,6.22
2023-05-26T10:50:17.233Z,6.72
2023-05-26T10:51:17.260Z,5.88
2023-05-26T10:52:17.300Z,5.64
2023-05-26T10:53:17.371Z,6.61
2023-05-26T10:54:17.434Z,6.45
2023-05-26T10:55:17.516Z,5.99
2023-05-26T10:56:17.535Z,6.28
2023-05-26T10:57:17.620Z,6.46
2023-05-26T10:58:17.646Z,6.54
2023-05-26T10:59:17.713Z,6.05
2023-05-26T11:00:17.869Z,6.53
2023-05-26T11:01:18.051Z,6.37
2023-05-26T11:02:17.880Z,6.70
2023-05-26T11:03:18.004Z,6.06
2023-05-26T11:04:18.000Z,5.95
2023-05-26T11:05:18.006Z,6.13
2023-05-26T11:06:18.053Z,6.24
2023-05-26T11:07:18.124Z,5.89
2023-05-26T11:08:18.118Z,6.36
2023-05-26T11:09:18.155Z,5.90
2023-05-26T11:10:18.220Z,6.37
2023-05-26T11:11:18.226Z,6.55
2023-05-26T11:12:18.259Z,5.75
2023-05-26T11:13:18.296Z,6.81
2023-05-26T11:14:18.426Z,6.47
2023-05-26T11:15:18.369Z,6.42
2023-05-26T11:16:18.445Z,5.90
2023-05-26T11:17:18.525Z,5.84
2023-05-26T11:18:18.511Z,6.64
2023-05-26T11:19:18.502Z,5.87
2023-05-26T11:20:18.697Z,6.36
2023-05-26T11:21:18.607Z,6.24
2023-05-26T11:22:18.636Z,5.72
2023-05-26T11:23:18.655Z,6.03
2023-05-26T11:24:18.695Z,6.46
2023-05-26T11:25:18.755Z,5.72
2023-05-26T11:26:18.795Z,6.47
2023-05-26T11:27:18.861Z,6.32
2023-05-26T11:28:18.883Z,6.12
2023-05-26T11:29:18.900Z,6.28
2023-05-26T11:30:18.971Z,6.46
2023-05-26T11:31:19.047Z,6.03
2023-05-26T11:32:19.047Z,6.12
2023-05-26T11:33:19.115Z,5.57
2023-05-26T11:34:19.156Z,6.54
2023-05-26T11:35:19.212Z,6.40
2023-05-26T11:36:19.286Z,5.51
2023-05-26T11:37:19.291Z,6.18
2023-05-26T11:38:19.358Z,5.80
2023-05-26T11:39:19.394Z,6.47
2023-05-26T11:40:19.460Z,6.03
2023-05-26T11:41:19.511Z,6.03
2023-05-26T11:42:19.702Z,6.12
2023-05-26T11:43:19.608Z,6.02
2023-05-26T11:44:19.677Z,5.49
2023-05-26T11:45:19.740Z,6.13
2023-05-26T11:46:19.811Z,6.03
2023-05-26T11:47:19.841Z,6.27
2023-05-26T11:48:19.911Z,6.18
2023-05-26T11:49:19.960Z,6.16
2023-05-26T11:50:20.038Z,5.76
2023-05-26T11:51:20.069Z,6.18
2023-05-26T11:52:20.133Z,5.98
2023-05-26T11:53:20.236Z,5.73
2023-05-26T11:54:20.235Z,5.12
2023-05-26T11:55:20.396Z,5.81
2023-05-26T11:56:20.352Z,5.80
2023-05-26T11:57:20.406Z,5.43
2023-05-26T11:58:20.464Z,5.66
2023-05-26T11:59:20.526Z,5.53
2023-05-26T12:00:20.666Z,6.00
2023-05-26T12:01:20.640Z,5.97
2023-05-26T12:02:21.271Z,5.72
2023-05-26T12:03:20.762Z,5.36
2023-05-26T12:04:20.820Z,5.16
2023-05-26T12:05:20.878Z,5.94
2023-05-26T12:07:21.014Z,6.11
2023-05-26T12:08:21.050Z,5.43
2023-05-26T12:09:21.101Z,5.01
2023-05-26T12:10:21.174Z,5.66
2023-05-26T12:11:21.254Z,5.50
2023-05-26T12:12:21.321Z,5.72
2023-05-26T12:13:21.323Z,5.31
2023-05-26T12:14:21.395Z,5.39
2023-05-26T12:15:21.487Z,6.01
2023-05-26T12:16:21.534Z,5.72
2023-05-26T12:17:21.715Z,5.41
2023-05-26T12:18:21.649Z,5.10
2023-05-26T12:19:21.720Z,5.70
2023-05-26T12:20:37.770Z,5.35
2023-05-26T12:21:22.760Z,5.27
2023-05-26T12:22:21.734Z,5.69
2023-05-26T12:23:21.715Z,5.57
2023-05-26T12:24:21.730Z,5.36
2023-05-26T12:25:21.719Z,6.00
2023-05-26T12:26:21.710Z,5.00
2023-05-26T12:27:21.714Z,6.11
2023-05-26T12:28:21.692Z,5.52
2023-05-26T12:29:21.709Z,5.42
2023-05-26T12:30:22.540Z,4.80
2023-05-26T12:31:21.843Z,5.11
2023-05-26T12:32:21.919Z,5.27
2023-05-26T12:33:21.974Z,5.86
2023-05-26T12:34:22.027Z,5.56
2023-05-26T12:35:22.074Z,5.68
2023-05-26T12:36:22.120Z,4.75
2023-05-26T12:37:22.211Z,5.70
2023-05-26T12:38:22.251Z,5.55
2023-05-26T12:39:22.317Z,5.49
2023-05-26T12:40:22.376Z,5.10
2023-05-26T12:41:22.427Z,5.20
2023-05-26T12:42:22.509Z,5.49
2023-05-26T12:43:22.557Z,5.14
2023-05-26T12:44:22.615Z,5.71
2023-05-26T12:45:22.698Z,5.92
2023-05-26T12:46:22.760Z,5.29
2023-05-26T12:47:22.897Z,5.09
2023-05-26T12:48:22.924Z,5.22
2023-05-26T12:49:22.952Z,5.05
2023-05-26T12:50:22.983Z,5.07
2023-05-26T12:51:23.051Z,5.98
2023-05-26T12:52:23.127Z,5.40
2023-05-26T12:53:23.164Z,5.15
2023-05-26T12:54:23.233Z,5.02
2023-05-26T12:55:23.305Z,4.75
2023-05-26T12:56:23.346Z,4.85
2023-05-26T12:57:23.413Z,5.08
2023-05-26T12:58:23.464Z,4.49
2023-05-26T12:59:23.516Z,5.11
2023-05-26T13:00:23.581Z,5.34
2023-05-26T13:01:23.692Z,5.60
2023-05-26T13:02:23.910Z,5.05
2023-05-26T13:03:23.923Z,4.81
2023-05-26T13:04:23.918Z,4.60
2023-05-26T13:05:23.874Z,4.96
2023-05-26T13:06:23.942Z,5.94
2023-05-26T13:07:24.009Z,5.51
2023-05-26T13:08:24.076Z,5.62
2023-05-26T13:09:24.118Z,5.37
2023-05-26T13:10:24.192Z,5.08
2023-05-26T13:11:24.238Z,5.37
2023-05-26T13:12:24.286Z,4.99
2023-05-26T13:13:24.346Z,5.15
2023-05-26T13:14:24.417Z,5.27
2023-05-26T13:15:24.476Z,5.34
2023-05-26T13:16:26.290Z,5.30
2023-05-26T13:17:24.755Z,5.53
2023-05-26T13:18:24.670Z,4.60